Time;durP1;ratioP1;P1;durP2;ratioP2;P2;SDS_P1;SDS_P2;PMS_P1;PMS_P2;Temp;Humidity;BMP_temperature;BMP_pressure;BME280_temperature;BME280_humidity;BME280_pressure;Samples;Min_cycle;Max_cycle;Signal;HPM_P1;HPM_P2
2022/09/18 00:01:14;;;;;;;9.32;1.63;;;10.30;99.90;;;;;;5034103;28;20037;-74
2022/09/18 00:03:40;;;;;;;13.95;2.63;;;10.10;99.90;;;;;;5032471;28;20041;-74
2022/09/18 00:06:09;;;;;;;19.20;2.80;;;10.30;99.90;;;;;;5028599;28;20042;-73
2022/09/18 00:08:34;;;;;;;13.27;2.17;;;10.30;99.90;;;;;;5034647;28;20396;-74
2022/09/18 00:11:03;;;;;;;18.88;4.93;;;10.20;99.90;;;;;;5025808;28;20046;-73
2022/09/18 00:13:29;;;;;;;20.17;3.23;;;10.00;99.90;;;;;;5022130;28;20659;-73
2022/09/18 00:15:55;;;;;;;15.68;3.10;;;9.90;99.90;;;;;;5028416;28;20102;-73
2022/09/18 00:18:21;;;;;;;8.90;2.25;;;10.00;99.90;;;;;;5025621;28;20046;-73
2022/09/18 00:20:47;;;;;;;12.38;2.25;;;10.20;99.90;;;;;;5028852;28;20036;-74
2022/09/18 00:23:12;;;;;;;17.80;2.70;;;9.90;99.90;;;;;;5025108;28;20091;-74
2022/09/18 00:25:40;;;;;;;8.73;1.48;;;10.10;99.90;;;;;;5028338;28;20425;-74
2022/09/18 00:28:06;;;;;;;10.57;1.92;;;10.10;99.90;;;;;;5030836;28;20057;-74
2022/09/18 00:30:32;;;;;;;12.30;2.80;;;10.00;99.90;;;;;;5025114;28;20038;-74
2022/09/18 00:32:57;;;;;;;16.25;3.30;;;10.20;99.90;;;;;;5022865;28;20041;-73
2022/09/18 00:35:23;;;;;;;9.65;2.40;;;10.10;99.90;;;;;;5033099;28;20104;-74
2022/09/18 00:37:48;;;;;;;12.43;1.65;;;10.00;99.90;;;;;;5025104;28;20124;-75
2022/09/18 00:40:15;;;;;;;12.55;2.22;;;10.10;99.90;;;;;;5023325;28;20053;-74
2022/09/18 00:42:41;;;;;;;11.98;1.83;;;10.20;99.90;;;;;;5024413;28;20514;-74
2022/09/18 00:45:09;;;;;;;14.57;1.55;;;10.10;99.90;;;;;;5026341;28;20551;-74
2022/09/18 00:47:43;;;;;;;10.80;2.20;;;10.00;99.90;;;;;;5023535;28;20090;-73
2022/09/18 00:50:23;;;;;;;9.73;3.08;;;10.10;99.90;;;;;;5029188;28;20046;-75
2022/09/18 00:53:01;;;;;;;13.23;2.55;;;10.20;99.90;;;;;;5035994;28;20064;-74
2022/09/18 00:55:37;;;;;;;19.95;3.75;;;10.10;99.90;;;;;;5033703;28;20520;-74
2022/09/18 00:58:04;;;;;;;18.88;2.08;;;10.00;99.90;;;;;;5026201;28;20103;-74
2022/09/18 01:00:31;;;;;;;17.08;2.75;;;10.20;99.90;;;;;;5025355;28;20500;-75
2022/09/18 01:03:00;;;;;;;13.82;2.30;;;10.30;99.90;;;;;;5026073;28;20034;-74
2022/09/18 01:05:49;;;;;;;14.20;3.30;;;10.30;99.90;;;;;;5025374;28;20045;-74
2022/09/18 01:08:40;;;;;;;11.65;1.33;;;10.10;99.90;;;;;;5024745;28;20041;-74
2022/09/18 01:11:20;;;;;;;9.77;1.73;;;10.20;99.90;;;;;;5024358;28;20567;-74
2022/09/18 01:13:49;;;;;;;;;;;10.10;99.90;;;;;;5029951;28;20037;-74
2022/09/18 01:16:37;;;;;;;15.82;4.20;;;10.30;99.90;;;;;;5028501;28;19921;-75
2022/09/18 01:19:40;;;;;;;17.33;3.67;;;10.10;99.90;;;;;;5022444;28;20053;-74
2022/09/18 01:22:24;;;;;;;10.70;2.60;;;10.20;99.90;;;;;;5024222;28;20063;-74
2022/09/18 01:25:14;;;;;;;9.55;2.35;;;10.20;99.90;;;;;;5023963;28;20046;-75
2022/09/18 01:27:40;;;;;;;9.82;2.38;;;9.90;99.90;;;;;;5020983;28;20049;-74
2022/09/18 01:30:10;;;;;;;5.30;0.75;;;10.10;99.90;;;;;;5024817;28;20046;-75
2022/09/18 01:32:58;;;;;;;11.73;2.03;;;10.20;99.90;;;;;;5022180;28;20049;-75
2022/09/18 01:35:27;;;;;;;9.00;1.67;;;10.00;99.90;;;;;;5024066;28;20042;-74
2022/09/18 01:38:34;;;;;;;20.35;2.88;;;10.00;99.90;;;;;;5024130;28;20037;-75
2022/09/18 01:41:08;;;;;;;12.95;2.35;;;10.00;99.90;;;;;;5022275;28;20053;-74
2022/09/18 01:43:37;;;;;;;8.43;1.33;;;9.90;99.90;;;;;;5017126;28;20045;-74
2022/09/18 01:46:08;;;;;;;9.02;2.33;;;10.00;99.90;;;;;;5032051;28;20100;-74
2022/09/18 01:48:39;;;;;;;8.35;1.42;;;9.90;99.90;;;;;;5030381;22;20049;-74
2022/09/18 01:51:13;;;;;;;10.07;1.58;;;9.90;99.90;;;;;;5015516;28;20045;-74
2022/09/18 01:53:44;;;;;;;9.80;1.40;;;10.00;99.90;;;;;;5014360;28;20468;-75
2022/09/18 01:56:22;;;;;;;9.55;1.48;;;10.20;99.90;;;;;;5023856;28;20515;-76
2022/09/18 01:58:50;;;;;;;11.45;2.33;;;10.40;99.90;;;;;;5012920;28;20042;-74
2022/09/18 02:01:19;;;;;;;7.53;1.50;;;10.30;99.90;;;;;;5029226;28;20037;-74
2022/09/18 02:03:51;;;;;;;6.57;1.30;;;10.20;99.90;;;;;;5028151;28;20419;-74
2022/09/18 02:06:25;;;;;;;12.90;1.67;;;10.20;99.90;;;;;;5022251;28;20115;-74
2022/09/18 02:08:56;;;;;;;13.27;1.48;;;10.10;99.90;;;;;;5024267;28;20037;-74
2022/09/18 02:11:22;;;;;;;8.25;1.73;;;10.40;99.90;;;;;;5024091;28;20416;-74
2022/09/18 02:14:04;;;;;;;10.40;2.42;;;10.30;99.90;;;;;;5032994;28;20108;-75
2022/09/18 02:16:52;;;;;;;24.10;2.78;;;10.40;99.90;;;;;;5034091;28;20049;-74
2022/09/18 02:19:27;;;;;;;9.07;1.05;;;10.50;99.90;;;;;;5029843;28;20053;-74
2022/09/18 02:21:55;;;;;;;7.57;1.80;;;10.50;99.90;;;;;;5008990;28;20499;-76
2022/09/18 02:24:27;;;;;;;15.70;2.17;;;10.60;99.90;;;;;;5024776;28;20423;-73
2022/09/18 02:26:55;;;;;;;13.35;1.42;;;10.40;99.90;;;;;;5034060;28;20479;-74
2022/09/18 02:29:23;;;;;;;17.42;2.97;;;10.70;99.90;;;;;;5026803;28;20060;-74
2022/09/18 02:31:49;;;;;;;10.52;2.08;;;10.70;99.90;;;;;;5044259;28;20616;-74
2022/09/18 02:34:16;;;;;;;13.05;1.35;;;10.60;99.90;;;;;;5020337;28;20462;-74
2022/09/18 02:36:54;;;;;;;11.95;2.35;;;10.50;99.90;;;;;;5022628;28;20045;-74
2022/09/18 02:39:22;;;;;;;13.02;2.05;;;10.60;99.90;;;;;;5034671;28;20049;-73
2022/09/18 02:42:00;;;;;;;18.33;4.47;;;10.80;99.90;;;;;;5023855;28;20373;-74
2022/09/18 02:44:38;;;;;;;11.07;1.40;;;10.60;99.90;;;;;;5025683;28;20484;-73
2022/09/18 02:47:23;;;;;;;5.43;1.17;;;10.50;99.90;;;;;;5026421;28;20038;-74
2022/09/18 02:50:08;;;;;;;18.45;2.60;;;10.60;99.90;;;;;;5035267;28;20065;-74
2022/09/18 02:53:18;;;;;;;6.40;1.15;;;10.50;99.90;;;;;;5036520;28;20045;-73
2022/09/18 02:55:43;;;;;;;17.00;2.47;;;10.50;99.90;;;;;;4984266;28;20042;-75
2022/09/18 02:58:18;;;;;;;4.13;0.98;;;10.60;99.90;;;;;;4986021;28;20057;-73
2022/09/18 03:00:46;;;;;;;12.88;3.55;;;10.60;99.90;;;;;;5013947;28;20388;-73
2022/09/18 03:03:14;;;;;;;7.25;2.70;;;10.70;99.90;;;;;;5038207;28;20088;-74
2022/09/18 03:05:40;;;;;;;9.02;1.52;;;10.60;99.90;;;;;;5032483;28;20038;-74
2022/09/18 03:08:05;;;;;;;7.07;1.48;;;10.80;99.90;;;;;;5031874;28;20072;-73
2022/09/18 03:10:31;;;;;;;7.20;1.55;;;10.50;99.90;;;;;;5028192;28;20138;-73
2022/09/18 03:12:57;;;;;;;9.45;1.70;;;10.80;99.90;;;;;;5035539;28;20041;-73
2022/09/18 03:15:22;;;;;;;5.75;0.85;;;10.60;99.90;;;;;;5025645;28;20056;-74
2022/09/18 03:17:48;;;;;;;5.72;0.82;;;10.70;99.90;;;;;;5025710;28;20663;-74
2022/09/18 03:20:14;;;;;;;6.15;1.25;;;10.60;99.90;;;;;;5040028;28;20137;-73
2022/09/18 03:22:39;;;;;;;11.00;2.38;;;10.30;99.90;;;;;;5036170;28;20041;-74
2022/09/18 03:25:05;;;;;;;4.10;0.55;;;10.60;99.90;;;;;;5027911;28;20045;-75
2022/09/18 03:27:31;;;;;;;4.70;0.90;;;10.30;99.90;;;;;;5030731;28;20098;-74
2022/09/18 03:29:57;;;;;;;7.18;1.17;;;10.40;99.90;;;;;;5039806;28;20046;-74
2022/09/18 03:32:22;;;;;;;8.70;1.58;;;10.50;99.90;;;;;;5039685;28;20438;-74
2022/09/18 03:34:48;;;;;;;10.23;1.75;;;10.50;99.90;;;;;;5025844;28;20132;-74
2022/09/18 03:37:14;;;;;;;5.55;1.13;;;10.50;99.90;;;;;;5026442;28;20033;-74
2022/09/18 03:39:39;;;;;;;6.43;1.23;;;10.40;99.90;;;;;;5029126;28;20087;-74
2022/09/18 03:42:05;;;;;;;8.57;1.95;;;10.50;99.90;;;;;;5028636;28;20646;-74
2022/09/18 03:44:30;;;;;;;4.22;0.68;;;10.60;99.90;;;;;;5042508;28;20100;-74
2022/09/18 03:46:56;;;;;;;12.10;2.45;;;10.40;99.90;;;;;;5035508;28;20036;-74
2022/09/18 03:49:22;;;;;;;5.68;1.50;;;10.50;99.90;;;;;;5043348;28;20100;-74
2022/09/18 03:51:47;;;;;;;4.88;0.52;;;10.20;99.90;;;;;;5034735;28;20048;-74
2022/09/18 03:54:13;;;;;;;7.55;1.40;;;10.40;99.90;;;;;;5030535;28;20041;-74
2022/09/18 03:56:39;;;;;;;4.60;1.70;;;10.20;99.90;;;;;;5037316;28;20052;-74
2022/09/18 03:59:05;;;;;;;9.68;2.08;;;10.40;99.90;;;;;;5044325;28;20392;-74
2022/09/18 04:01:30;;;;;;;7.45;1.58;;;10.50;99.90;;;;;;5026380;28;20053;-73
2022/09/18 04:03:56;;;;;;;13.48;2.10;;;10.30;99.90;;;;;;5026159;28;20068;-74
2022/09/18 04:06:21;;;;;;;8.68;1.02;;;10.20;99.90;;;;;;5028325;28;20081;-74
2022/09/18 04:08:47;;;;;;;6.85;1.20;;;10.20;99.90;;;;;;5041008;28;20080;-73
2022/09/18 04:11:13;;;;;;;7.97;0.50;;;10.50;99.90;;;;;;5035433;28;20116;-74
2022/09/18 04:13:38;;;;;;;10.35;1.75;;;10.20;99.90;;;;;;5041403;28;20049;-74
2022/09/18 04:16:04;;;;;;;8.10;1.50;;;10.30;99.90;;;;;;5035750;28;20052;-74
2022/09/18 04:18:30;;;;;;;13.95;1.40;;;10.30;99.90;;;;;;5031041;28;20049;-75
2022/09/18 04:20:56;;;;;;;5.70;1.42;;;10.40;99.90;;;;;;5026005;28;20107;-74
2022/09/18 04:23:21;;;;;;;3.97;0.63;;;10.50;99.90;;;;;;5032826;28;20041;-74
2022/09/18 04:25:47;;;;;;;11.98;1.58;;;10.50;99.90;;;;;;5030835;28;20037;-74
2022/09/18 04:28:12;;;;;;;19.10;2.78;;;10.50;99.90;;;;;;5027647;28;20041;-74
2022/09/18 04:30:38;;;;;;;5.97;1.30;;;10.80;99.90;;;;;;5031842;28;20763;-74
2022/09/18 04:33:04;;;;;;;8.18;1.13;;;10.80;99.90;;;;;;5032999;28;20493;-75
2022/09/18 04:35:30;;;;;;;5.30;1.13;;;10.70;99.90;;;;;;5031636;28;20045;-77
2022/09/18 04:37:55;;;;;;;4.63;1.40;;;10.90;99.90;;;;;;5032314;28;20033;-75
2022/09/18 04:40:21;;;;;;;4.22;0.88;;;10.60;99.90;;;;;;5041667;28;20057;-75
2022/09/18 04:42:47;;;;;;;3.85;1.00;;;10.80;99.90;;;;;;5026033;28;20039;-75
2022/09/18 04:45:13;;;;;;;8.48;0.98;;;10.90;99.90;;;;;;5033351;28;20038;-75
2022/09/18 04:47:39;;;;;;;5.93;1.10;;;10.80;99.90;;;;;;5025843;28;20237;-75
2022/09/18 04:50:07;;;;;;;9.57;1.25;;;10.70;99.90;;;;;;5027492;28;20468;-75
2022/09/18 04:52:34;;;;;;;8.13;1.38;;;10.90;99.90;;;;;;5022290;28;20693;-75
2022/09/18 04:55:00;;;;;;;6.45;0.88;;;10.80;99.90;;;;;;5034377;28;20045;-74
2022/09/18 04:57:25;;;;;;;11.80;1.88;;;10.80;99.90;;;;;;5038919;28;20408;-74
2022/09/18 04:59:51;;;;;;;7.28;1.10;;;10.60;99.90;;;;;;5036976;28;20048;-75
2022/09/18 05:02:18;;;;;;;9.57;1.27;;;10.70;99.90;;;;;;5026200;28;20063;-74
2022/09/18 05:04:43;;;;;;;6.00;1.08;;;10.60;99.90;;;;;;5037916;28;20178;-74
2022/09/18 05:07:09;;;;;;;5.40;0.45;;;10.90;99.90;;;;;;5028146;28;20135;-76
2022/09/18 05:09:35;;;;;;;8.68;1.38;;;10.90;99.90;;;;;;5046694;28;20053;-74
2022/09/18 05:12:01;;;;;;;9.05;1.58;;;10.80;99.90;;;;;;5035255;28;20060;-76
2022/09/18 05:14:27;;;;;;;13.75;1.65;;;10.80;99.90;;;;;;5027987;28;20052;-74
2022/09/18 05:16:55;;;;;;;4.03;0.82;;;10.60;99.90;;;;;;5022768;28;20374;-74
2022/09/18 05:19:21;;;;;;;7.70;1.85;;;10.60;99.90;;;;;;5024504;28;20068;-75
2022/09/18 05:21:50;;;;;;;7.10;1.20;;;10.50;99.90;;;;;;5023095;28;20480;-75
2022/09/18 05:24:16;;;;;;;4.22;1.25;;;10.70;99.90;;;;;;5044176;28;20045;-74
2022/09/18 05:26:43;;;;;;;5.20;1.13;;;10.70;99.90;;;;;;5031550;28;20120;-74
2022/09/18 05:29:09;;;;;;;9.48;1.40;;;10.60;99.90;;;;;;5023412;28;20045;-74
2022/09/18 05:31:34;;;;;;;6.20;0.80;;;10.70;99.90;;;;;;5030397;28;20392;-75
2022/09/18 05:34:00;;;;;;;4.75;1.30;;;10.50;99.90;;;;;;5032663;28;20526;-74
2022/09/18 05:36:26;;;;;;;8.02;1.23;;;10.60;99.90;;;;;;5022177;28;20545;-74
2022/09/18 05:38:51;;;;;;;4.63;0.82;;;10.60;99.90;;;;;;5035385;28;20045;-75
2022/09/18 05:41:17;;;;;;;5.95;1.30;;;10.40;99.90;;;;;;5045050;28;20041;-74
2022/09/18 05:43:43;;;;;;;8.45;1.33;;;10.40;99.90;;;;;;5025896;28;20500;-75
2022/09/18 05:46:10;;;;;;;6.93;1.35;;;10.60;99.90;;;;;;5041151;28;20076;-74
2022/09/18 05:48:36;;;;;;;12.57;1.50;;;10.60;99.90;;;;;;5028050;28;20055;-74
2022/09/18 05:51:02;;;;;;;10.43;1.48;;;10.50;99.90;;;;;;5025528;28;20055;-75
2022/09/18 05:53:27;;;;;;;6.40;1.08;;;10.80;99.90;;;;;;5024097;28;20403;-75
2022/09/18 05:55:53;;;;;;;8.48;1.52;;;10.60;99.90;;;;;;5023718;28;20053;-74
2022/09/18 05:58:19;;;;;;;7.53;1.10;;;10.40;99.90;;;;;;5026772;28;20099;-75
2022/09/18 06:00:46;;;;;;;13.32;2.10;;;10.70;99.90;;;;;;5023930;28;20137;-74
2022/09/18 06:03:14;;;;;;;14.32;2.40;;;10.40;99.90;;;;;;5023976;28;20512;-75
2022/09/18 06:05:40;;;;;;;8.15;1.63;;;10.50;99.90;;;;;;5023356;28;20051;-75
2022/09/18 06:08:10;;;;;;;4.63;1.42;;;10.70;99.90;;;;;;5023234;28;20081;-75
2022/09/18 06:10:38;;;;;;;8.63;1.58;;;10.60;99.90;;;;;;5025512;28;20088;-76
2022/09/18 06:13:15;;;;;;;3.50;0.98;;;10.50;99.90;;;;;;5023743;28;20120;-77
2022/09/18 06:15:46;;;;;;;6.57;2.22;;;10.60;99.90;;;;;;5024534;28;20045;-77
2022/09/18 06:18:13;;;;;;;4.93;0.73;;;10.60;99.90;;;;;;5030032;28;20042;-75
2022/09/18 06:20:42;;;;;;;7.40;0.93;;;10.40;99.90;;;;;;5025413;28;20045;-75
2022/09/18 06:23:09;;;;;;;7.18;1.15;;;10.60;99.90;;;;;;5028605;28;20037;-75
2022/09/18 06:25:35;;;;;;;15.18;1.85;;;10.40;99.90;;;;;;5016954;28;20037;-75
2022/09/18 06:28:01;;;;;;;6.40;1.67;;;10.60;99.90;;;;;;5020641;28;20073;-75
2022/09/18 06:30:30;;;;;;;6.60;1.75;;;10.40;99.90;;;;;;5011517;28;20029;-75
2022/09/18 06:33:03;;;;;;;9.65;1.20;;;10.50;99.90;;;;;;5028383;28;20052;-75
2022/09/18 06:35:31;;;;;;;3.15;1.13;;;10.60;99.90;;;;;;5031523;28;20057;-75
2022/09/18 06:38:02;;;;;;;6.65;1.65;;;10.50;99.90;;;;;;5031444;28;20508;-75
2022/09/18 06:40:29;;;;;;;8.35;1.83;;;10.40;99.90;;;;;;5024495;28;20050;-75
2022/09/18 06:42:56;;;;;;;6.07;1.60;;;10.50;99.90;;;;;;5025250;28;20350;-74
2022/09/18 06:45:26;;;;;;;18.95;1.58;;;10.40;99.90;;;;;;5023295;28;20046;-75
2022/09/18 06:47:54;;;;;;;9.68;0.82;;;10.40;99.90;;;;;;5025701;28;20116;-75
2022/09/18 06:50:21;;;;;;;9.05;1.25;;;10.60;99.90;;;;;;5004603;28;20145;-75
2022/09/18 06:52:48;;;;;;;4.80;0.90;;;10.40;99.90;;;;;;5005017;28;20050;-75
2022/09/18 06:55:14;;;;;;;7.90;1.40;;;10.70;99.90;;;;;;5012938;28;20103;-75
2022/09/18 06:57:40;;;;;;;17.38;1.45;;;10.60;99.90;;;;;;5025113;28;20076;-76
2022/09/18 07:00:07;;;;;;;6.68;0.77;;;10.60;99.90;;;;;;5007620;28;20081;-76
2022/09/18 07:02:33;;;;;;;8.50;1.70;;;10.60;99.90;;;;;;5002664;28;20046;-74
2022/09/18 07:04:59;;;;;;;22.77;2.25;;;10.50;99.90;;;;;;5002535;28;20115;-74
2022/09/18 07:07:25;;;;;;;7.45;1.45;;;10.50;99.90;;;;;;5001448;28;20654;-74
2022/09/18 07:09:51;;;;;;;5.13;1.40;;;10.80;99.90;;;;;;5004811;28;20080;-75
2022/09/18 07:12:17;;;;;;;8.50;1.75;;;10.70;99.90;;;;;;5004893;28;20053;-75
2022/09/18 07:14:42;;;;;;;8.65;1.60;;;10.70;99.90;;;;;;5003207;28;20404;-75
2022/09/18 07:17:09;;;;;;;4.22;1.30;;;10.50;99.90;;;;;;5003473;28;20484;-75
2022/09/18 07:19:35;;;;;;;9.35;2.55;;;10.70;99.90;;;;;;5002181;28;20137;-76
2022/09/18 07:22:01;;;;;;;13.45;1.70;;;10.40;99.90;;;;;;5002774;28;20419;-74
2022/09/18 07:24:27;;;;;;;10.68;2.05;;;10.40;99.90;;;;;;5003020;28;20045;-74
2022/09/18 07:26:52;;;;;;;6.40;0.95;;;10.60;99.90;;;;;;5003581;28;20041;-75
2022/09/18 07:29:18;;;;;;;5.05;0.95;;;10.40;99.90;;;;;;4986361;28;20060;-75
2022/09/18 07:31:44;;;;;;;7.10;1.05;;;10.30;99.90;;;;;;5002448;28;20092;-76
2022/09/18 07:34:11;;;;;;;7.97;1.77;;;10.50;99.90;;;;;;5001884;28;20219;-75
2022/09/18 07:36:36;;;;;;;4.20;0.80;;;10.60;99.90;;;;;;5004865;28;20054;-74
2022/09/18 07:39:02;;;;;;;5.28;1.30;;;10.60;99.90;;;;;;5004382;28;20428;-74
2022/09/18 07:41:28;;;;;;;8.90;2.22;;;10.30;99.90;;;;;;5006634;28;20129;-73
2022/09/18 07:43:54;;;;;;;10.77;1.98;;;10.30;99.90;;;;;;5006572;28;20141;-75
2022/09/18 07:46:19;;;;;;;3.42;0.75;;;10.40;99.90;;;;;;5007944;28;20477;-75
2022/09/18 07:48:45;;;;;;;17.65;2.00;;;10.40;99.90;;;;;;5013631;28;20119;-78
2022/09/18 07:51:11;;;;;;;7.40;1.27;;;10.60;99.90;;;;;;5027354;28;20061;-79
2022/09/18 07:53:36;;;;;;;4.20;0.90;;;10.60;99.90;;;;;;5026333;28;20049;-74
2022/09/18 07:56:09;;;;;;;15.07;1.80;;;10.60;99.90;;;;;;5027175;28;20057;-73
2022/09/18 07:58:36;;;;;;;6.53;1.63;;;10.70;99.90;;;;;;5025492;28;20069;-73
2022/09/18 08:01:03;;;;;;;13.57;2.00;;;10.90;99.90;;;;;;5020199;28;20054;-73
2022/09/18 08:03:29;;;;;;;12.57;1.45;;;10.60;99.90;;;;;;5029850;28;20357;-74
2022/09/18 08:05:55;;;;;;;6.05;1.95;;;10.90;99.90;;;;;;5028394;28;20532;-73
2022/09/18 08:08:21;;;;;;;4.88;1.75;;;11.00;99.90;;;;;;5016486;28;20034;-74
2022/09/18 08:10:47;;;;;;;10.75;2.00;;;10.70;99.90;;;;;;5033303;28;20459;-75
2022/09/18 08:13:13;;;;;;;8.00;1.10;;;10.70;99.90;;;;;;5033194;28;20084;-74
2022/09/18 08:15:41;;;;;;;10.98;2.22;;;11.20;99.90;;;;;;5033156;28;20087;-74
2022/09/18 08:18:08;;;;;;;6.50;1.33;;;11.00;99.90;;;;;;5033496;28;20041;-74
2022/09/18 08:20:34;;;;;;;5.18;1.10;;;10.90;99.90;;;;;;5031055;28;20037;-73
2022/09/18 08:23:04;;;;;;;11.25;1.35;;;10.90;99.90;;;;;;5029013;28;20057;-74
2022/09/18 08:25:30;;;;;;;9.77;2.45;;;11.00;99.90;;;;;;5027127;28;20045;-73
2022/09/18 08:28:01;;;;;;;7.32;1.30;;;11.00;99.90;;;;;;5026080;28;20369;-73
2022/09/18 08:30:28;;;;;;;7.25;1.48;;;11.30;99.90;;;;;;5025398;28;20041;-75
2022/09/18 08:33:03;;;;;;;11.30;1.27;;;11.20;99.90;;;;;;5024165;28;20057;-74
2022/09/18 08:35:30;;;;;;;4.75;0.95;;;11.40;99.90;;;;;;5018704;28;20597;-73
2022/09/18 08:37:57;;;;;;;16.20;1.98;;;11.40;99.90;;;;;;5025147;28;20037;-72
2022/09/18 08:40:48;;;;;;;7.43;1.38;;;11.40;99.90;;;;;;5026475;28;20114;-74
2022/09/18 08:43:26;;;;;;;6.13;1.17;;;11.10;99.90;;;;;;5026194;28;20049;-73
2022/09/18 08:46:13;;;;;;;8.05;1.25;;;11.20;99.90;;;;;;5025730;28;20041;-72
2022/09/18 08:48:59;;;;;;;4.53;0.80;;;11.20;99.90;;;;;;5026597;28;20115;-72
2022/09/18 08:51:30;;;;;;;12.13;1.70;;;11.20;99.90;;;;;;5025326;28;20107;-72
2022/09/18 08:54:35;;;;;;;6.70;1.40;;;11.30;99.90;;;;;;5023667;28;20045;-72
2022/09/18 08:57:10;;;;;;;3.40;0.77;;;11.20;99.90;;;;;;5022588;28;20054;-73
2022/09/18 08:59:42;;;;;;;5.40;1.38;;;11.30;99.90;;;;;;5019685;28;20045;-73
2022/09/18 09:02:33;;;;;;;5.18;0.55;;;11.40;99.90;;;;;;5025335;28;20124;-72
2022/09/18 09:05:04;;;;;;;6.30;1.02;;;11.50;99.90;;;;;;5024339;28;20048;-73
2022/09/18 09:07:58;;;;;;;13.07;1.58;;;11.00;99.90;;;;;;5023931;28;20048;-74
2022/09/18 09:10:26;;;;;;;4.78;1.30;;;11.20;99.90;;;;;;5020687;28;20562;-73
2022/09/18 09:13:08;;;;;;;5.32;1.20;;;11.10;99.90;;;;;;5026415;28;20153;-72
2022/09/18 09:15:41;;;;;;;6.60;0.55;;;11.00;99.90;;;;;;5022991;28;20045;-72
2022/09/18 09:18:32;;;;;;;12.02;1.38;;;11.20;99.90;;;;;;5025919;28;20073;-73
2022/09/18 09:21:11;;;;;;;6.70;1.10;;;11.20;99.90;;;;;;5018534;28;20052;-71
2022/09/18 09:24:06;;;;;;;5.22;0.80;;;11.10;99.90;;;;;;5025833;28;20091;-72
2022/09/18 09:26:33;;;;;;;8.23;1.15;;;11.40;99.90;;;;;;5003751;28;20046;-72
2022/09/18 09:28:59;;;;;;;7.57;1.50;;;11.00;99.90;;;;;;5020606;28;20045;-71
2022/09/18 09:31:32;;;;;;;5.70;1.55;;;11.30;99.90;;;;;;5025299;28;20037;-71
2022/09/18 09:34:03;;;;;;;4.47;1.02;;;11.10;99.90;;;;;;5025576;28;20037;-73
2022/09/18 09:36:32;;;;;;;4.00;0.93;;;11.00;99.90;;;;;;5022334;28;20594;-73
2022/09/18 09:39:28;;;;;;;3.83;0.93;;;11.30;99.90;;;;;;5025914;28;20663;-73
2022/09/18 09:41:57;;;;;;;8.63;1.38;;;11.10;99.90;;;;;;5019878;28;20056;-72
2022/09/18 09:44:48;;;;;;;8.10;1.83;;;11.00;99.90;;;;;;5024985;28;20055;-73
2022/09/18 09:47:37;;;;;;;12.45;2.08;;;11.20;99.90;;;;;;5024986;28;20041;-71
2022/09/18 09:50:31;;;;;;;7.45;1.23;;;11.20;99.90;;;;;;5024366;28;20404;-73
2022/09/18 09:53:00;;;;;;;14.23;1.95;;;11.30;99.90;;;;;;5025229;28;20095;-71
2022/09/18 09:55:31;;;;;;;7.45;1.50;;;10.90;99.90;;;;;;5025602;28;20041;-71
2022/09/18 09:58:29;;;;;;;10.98;1.38;;;10.90;99.90;;;;;;5022250;28;20428;-74
2022/09/18 10:01:12;;;;;;;8.02;1.55;;;10.90;99.90;;;;;;5023375;28;20049;-73
2022/09/18 10:04:03;;;;;;;13.18;2.25;;;11.30;99.90;;;;;;5025318;28;20037;-72
2022/09/18 10:06:58;;;;;;;8.35;1.48;;;11.20;99.90;;;;;;5023732;28;20045;-73
2022/09/18 10:09:32;;;;;;;14.05;2.92;;;11.30;99.90;;;;;;5024247;28;20076;-72
2022/09/18 10:12:23;;;;;;;7.35;1.58;;;11.20;99.90;;;;;;5024303;28;20056;-72
2022/09/18 10:14:51;;;;;;;15.55;1.80;;;11.00;99.90;;;;;;5019081;28;20133;-74
2022/09/18 10:17:19;;;;;;;14.07;2.58;;;10.90;99.90;;;;;;5023792;28;20038;-73
2022/09/18 10:19:46;;;;;;;13.48;1.83;;;11.00;99.90;;;;;;5025784;28;20404;-73
2022/09/18 10:22:17;;;;;;;6.03;1.63;;;11.30;99.90;;;;;;5023382;28;20041;-73
2022/09/18 10:25:02;;;;;;;19.25;2.75;;;11.20;99.90;;;;;;5019077;28;20537;-73
2022/09/18 10:27:28;;;;;;;9.80;2.20;;;11.20;99.90;;;;;;5022424;28;20046;-73
2022/09/18 10:29:54;;;;;;;8.38;1.77;;;11.40;99.90;;;;;;5024540;28;20128;-73
2022/09/18 10:32:32;;;;;;;12.27;2.28;;;11.20;99.90;;;;;;5022165;28;20455;-73
2022/09/18 10:34:57;;;;;;;14.73;2.67;;;11.20;99.90;;;;;;5025426;28;20515;-73
2022/09/18 10:37:29;;;;;;;8.82;1.38;;;11.60;99.90;;;;;;5021893;28;20041;-73
2022/09/18 10:39:58;;;;;;;13.18;1.85;;;11.60;99.90;;;;;;5025248;28;20045;-73
2022/09/18 10:42:27;;;;;;;15.02;1.67;;;11.60;99.90;;;;;;5022850;28;20118;-73
2022/09/18 10:44:56;;;;;;;17.40;2.65;;;11.60;99.90;;;;;;5025462;28;20487;-73
2022/09/18 10:47:30;;;;;;;9.10;1.55;;;11.70;99.90;;;;;;5023583;28;20049;-72
2022/09/18 10:50:18;;;;;;;6.28;1.00;;;11.80;99.90;;;;;;5022337;28;20768;-73
2022/09/18 10:52:45;;;;;;;14.48;2.70;;;11.80;99.90;;;;;;5022450;28;20053;-74
2022/09/18 10:55:12;;;;;;;11.38;1.92;;;11.60;99.90;;;;;;5018899;28;20061;-75
2022/09/18 10:57:42;;;;;;;9.48;2.00;;;11.80;99.90;;;;;;5022596;28;20481;-72
2022/09/18 11:00:11;;;;;;;9.43;2.30;;;12.00;99.90;;;;;;5023091;28;20042;-72
2022/09/18 11:02:46;;;;;;;8.52;2.30;;;11.90;99.90;;;;;;5022683;28;20057;-72
2022/09/18 11:05:21;;;;;;;15.30;2.47;;;12.10;99.90;;;;;;5023231;28;20041;-74
2022/09/18 11:07:53;;;;;;;12.30;2.90;;;12.10;99.90;;;;;;5021635;28;20038;-73
2022/09/18 11:10:25;;;;;;;5.70;1.00;;;12.10;99.90;;;;;;5023755;28;20049;-73
2022/09/18 11:12:53;;;;;;;10.05;1.52;;;12.10;99.90;;;;;;5023146;28;20399;-73
2022/09/18 11:15:21;;;;;;;14.13;2.05;;;12.20;99.90;;;;;;5023637;28;20056;-73
2022/09/18 11:17:53;;;;;;;6.57;2.25;;;12.40;99.90;;;;;;5007980;28;20056;-73
2022/09/18 11:20:28;;;;;;;13.52;1.42;;;12.40;99.90;;;;;;5008995;28;20054;-73
2022/09/18 11:23:23;;;;;;;15.45;2.92;;;12.40;99.90;;;;;;5018175;28;20037;-73
2022/09/18 11:25:48;;;;;;;38.17;2.65;;;12.20;99.90;;;;;;5028656;28;20076;-73
2022/09/18 11:28:28;;;;;;;6.15;1.40;;;12.60;99.90;;;;;;5025462;28;20639;-73
2022/09/18 11:31:00;;;;;;;17.27;1.88;;;12.30;99.90;;;;;;5028726;28;20125;-73
2022/09/18 11:33:41;;;;;;;15.02;2.58;;;12.60;99.90;;;;;;5025710;28;20114;-73
2022/09/18 11:36:10;;;;;;;7.80;1.60;;;12.70;99.90;;;;;;5028871;28;20141;-73
2022/09/18 11:38:45;;;;;;;11.38;1.20;;;12.80;99.90;;;;;;5027806;28;20037;-74
2022/09/18 11:41:12;;;;;;;12.38;2.15;;;12.60;99.90;;;;;;5028079;28;20655;-74
2022/09/18 11:43:41;;;;;;;12.07;1.77;;;13.00;99.90;;;;;;5040187;28;20045;-74
2022/09/18 11:46:31;;;;;;;10.23;1.60;;;13.00;99.90;;;;;;5027249;28;20054;-73
2022/09/18 11:49:04;;;;;;;11.00;2.38;;;13.20;99.90;;;;;;5027117;28;20057;-74
2022/09/18 11:51:47;;;;;;;10.07;2.10;;;13.00;99.90;;;;;;5027363;28;20061;-76
2022/09/18 11:54:45;;;;;;;5.20;1.55;;;13.00;99.90;;;;;;5041202;28;20037;-76
2022/09/18 11:57:25;;;;;;;3.05;0.88;;;13.20;99.90;;;;;;5026332;28;20092;-74
2022/09/18 12:00:02;;;;;;;18.30;3.05;;;13.20;99.90;;;;;;5026642;28;20045;-74
2022/09/18 12:02:56;;;;;;;6.40;1.83;;;13.20;99.90;;;;;;5026612;28;20044;-75
2022/09/18 12:05:32;;;;;;;9.65;1.50;;;13.10;99.90;;;;;;5000671;28;20068;-75
2022/09/18 12:08:11;;;;;;;10.68;2.22;;;13.20;99.90;;;;;;5025217;28;20084;-75
2022/09/18 12:10:49;;;;;;;9.65;3.00;;;13.40;99.90;;;;;;5027236;28;20044;-74
2022/09/18 12:13:33;;;;;;;6.55;1.63;;;13.20;99.90;;;;;;5023180;28;20046;-75
2022/09/18 12:16:25;;;;;;;6.35;1.38;;;13.30;99.90;;;;;;5026927;28;20443;-75
2022/09/18 12:19:08;;;;;;;14.82;1.88;;;13.30;99.90;;;;;;5024594;28;20100;-75
2022/09/18 12:21:40;;;;;;;6.10;1.88;;;13.30;99.90;;;;;;5026299;28;20488;-75
2022/09/18 12:24:14;;;;;;;15.38;4.43;;;13.30;99.90;;;;;;5026118;28;20044;-76
2022/09/18 12:27:02;;;;;;;4.85;1.42;;;13.30;99.90;;;;;;5024850;28;20431;-75
2022/09/18 12:29:52;;;;;;;4.13;1.00;;;13.10;99.90;;;;;;5027072;28;20050;-76
2022/09/18 12:32:38;;;;;;;4.40;0.73;;;13.10;99.90;;;;;;5026084;28;20132;-76
2022/09/18 12:35:13;;;;;;;15.88;2.28;;;13.00;99.90;;;;;;5026895;28;20419;-75
2022/09/18 12:38:00;;;;;;;4.28;0.88;;;13.00;99.90;;;;;;5025426;28;20041;-76
2022/09/18 12:40:35;;;;;;;11.57;1.77;;;13.10;99.90;;;;;;5022207;28;20055;-75
2022/09/18 12:43:34;;;;;;;3.22;0.98;;;13.00;99.90;;;;;;5015740;28;20052;-75
2022/09/18 12:46:29;;;;;;;4.03;0.90;;;12.90;99.90;;;;;;5026090;28;20366;-74
2022/09/18 12:49:26;;;;;;;7.38;1.60;;;12.90;99.90;;;;;;5026786;28;20050;-74
2022/09/18 12:52:04;;;;;;;36.88;3.53;;;12.70;99.90;;;;;;5023726;28;20218;-74
2022/09/18 12:54:53;;;;;;;12.85;2.85;;;12.90;99.90;;;;;;5024634;28;20073;-74
2022/09/18 12:57:56;;;;;;;8.57;1.10;;;12.80;99.90;;;;;;4987179;28;20073;-74
2022/09/18 13:00:22;;;;;;;7.75;1.70;;;13.00;99.90;;;;;;5013450;28;20049;-74
2022/09/18 13:03:40;;;;;;;15.27;1.45;;;12.80;99.90;;;;;;5025747;28;20132;-74
2022/09/18 13:06:14;;;;;;;10.30;0.98;;;12.90;99.90;;;;;;5013267;28;20050;-75
2022/09/18 13:08:55;;;;;;;7.28;0.90;;;12.90;99.90;;;;;;5025125;28;20392;-75